sensor_id;sensor_type;location;lat;lon;timestamp;P1;durP1;ratioP1;P2;durP2;ratioP2
19883;SDS011;10104;50.732;10.174;2023-07-13T00:01:34;5.13;;;1.50;;
19883;SDS011;10104;50.732;10.174;2023-07-13T00:03:56;3.80;;;1.60;;
19883;SDS011;10104;50.732;10.174;2023-07-13T00:06:18;3.55;;;1.55;;
19883;SDS011;10104;50.732;10.174;2023-07-13T00:08:42;2.33;;;1.60;;
19883;SDS011;10104;50.732;10.174;2023-07-13T00:11:04;2.13;;;1.40;;
19883;SDS011;10104;50.732;10.174;2023-07-13T00:13:27;3.65;;;1.15;;
19883;SDS011;10104;50.732;10.174;2023-07-13T00:15:50;4.60;;;1.60;;
19883;SDS011;10104;50.732;10.174;2023-07-13T00:18:12;2.10;;;1.55;;
19883;SDS011;10104;50.732;10.174;2023-07-13T00:20:33;2.50;;;1.50;;
19883;SDS011;10104;50.732;10.174;2023-07-13T00:22:54;2.65;;;1.50;;
19883;SDS011;10104;50.732;10.174;2023-07-13T00:25:16;3.65;;;1.60;;
19883;SDS011;10104;50.732;10.174;2023-07-13T00:27:38;2.55;;;1.42;;
19883;SDS011;10104;50.732;10.174;2023-07-13T00:30:00;2.70;;;1.77;;
19883;SDS011;10104;50.732;10.174;2023-07-13T00:32:21;2.88;;;1.63;;
19883;SDS011;10104;50.732;10.174;2023-07-13T00:34:43;6.07;;;1.92;;
19883;SDS011;10104;50.732;10.174;2023-07-13T00:37:05;3.53;;;1.70;;
19883;SDS011;10104;50.732;10.174;2023-07-13T00:39:27;3.22;;;1.48;;
19883;SDS011;10104;50.732;10.174;2023-07-13T00:41:49;3.67;;;1.38;;
19883;SDS011;10104;50.732;10.174;2023-07-13T00:44:13;2.80;;;1.50;;
19883;SDS011;10104;50.732;10.174;2023-07-13T00:46:36;4.78;;;1.88;;
19883;SDS011;10104;50.732;10.174;2023-07-13T00:49:02;2.90;;;1.63;;
19883;SDS011;10104;50.732;10.174;2023-07-13T00:51:31;3.60;;;1.85;;
19883;SDS011;10104;50.732;10.174;2023-07-13T00:53:59;3.03;;;1.70;;
19883;SDS011;10104;50.732;10.174;2023-07-13T00:56:25;3.28;;;1.50;;
19883;SDS011;10104;50.732;10.174;2023-07-13T00:58:47;4.00;;;1.58;;
19883;SDS011;10104;50.732;10.174;2023-07-13T01:01:09;6.45;;;1.77;;
19883;SDS011;10104;50.732;10.174;2023-07-13T01:03:30;2.78;;;1.70;;
19883;SDS011;10104;50.732;10.174;2023-07-13T01:05:52;2.58;;;1.50;;
19883;SDS011;10104;50.732;10.174;2023-07-13T01:08:15;3.20;;;1.60;;
19883;SDS011;10104;50.732;10.174;2023-07-13T01:10:37;2.35;;;1.63;;
19883;SDS011;10104;50.732;10.174;2023-07-13T01:13:01;2.78;;;1.50;;
19883;SDS011;10104;50.732;10.174;2023-07-13T01:15:39;2.40;;;1.40;;
19883;SDS011;10104;50.732;10.174;2023-07-13T01:18:01;3.20;;;1.85;;
19883;SDS011;10104;50.732;10.174;2023-07-13T01:20:24;5.27;;;2.07;;
19883;SDS011;10104;50.732;10.174;2023-07-13T01:22:46;2.73;;;1.60;;
19883;SDS011;10104;50.732;10.174;2023-07-13T01:25:07;3.60;;;1.67;;
19883;SDS011;10104;50.732;10.174;2023-07-13T01:27:29;3.70;;;1.60;;
19883;SDS011;10104;50.732;10.174;2023-07-13T01:29:51;4.22;;;1.55;;
19883;SDS011;10104;50.732;10.174;2023-07-13T01:32:16;4.37;;;1.77;;
19883;SDS011;10104;50.732;10.174;2023-07-13T01:34:44;4.73;;;1.60;;
19883;SDS011;10104;50.732;10.174;2023-07-13T01:37:05;3.42;;;1.65;;
19883;SDS011;10104;50.732;10.174;2023-07-13T01:39:27;2.45;;;1.60;;
19883;SDS011;10104;50.732;10.174;2023-07-13T01:41:48;3.07;;;1.50;;
19883;SDS011;10104;50.732;10.174;2023-07-13T01:44:10;2.73;;;1.63;;
19883;SDS011;10104;50.732;10.174;2023-07-13T01:46:31;4.30;;;1.37;;
19883;SDS011;10104;50.732;10.174;2023-07-13T01:48:53;2.20;;;1.50;;
19883;SDS011;10104;50.732;10.174;2023-07-13T01:51:15;2.07;;;1.77;;
19883;SDS011;10104;50.732;10.174;2023-07-13T01:53:37;2.40;;;1.43;;
19883;SDS011;10104;50.732;10.174;2023-07-13T01:55:58;2.70;;;1.60;;
19883;SDS011;10104;50.732;10.174;2023-07-13T01:58:20;3.53;;;1.70;;
19883;SDS011;10104;50.732;10.174;2023-07-13T02:00:41;3.50;;;1.70;;
19883;SDS011;10104;50.732;10.174;2023-07-13T02:03:03;3.10;;;1.50;;
19883;SDS011;10104;50.732;10.174;2023-07-13T02:05:25;4.03;;;1.60;;
19883;SDS011;10104;50.732;10.174;2023-07-13T02:07:47;4.23;;;1.77;;
19883;SDS011;10104;50.732;10.174;2023-07-13T02:10:09;4.60;;;1.70;;
19883;SDS011;10104;50.732;10.174;2023-07-13T02:12:31;3.43;;;1.80;;
19883;SDS011;10104;50.732;10.174;2023-07-13T02:14:53;4.83;;;1.93;;
19883;SDS011;10104;50.732;10.174;2023-07-13T02:17:14;2.90;;;1.70;;
19883;SDS011;10104;50.732;10.174;2023-07-13T02:19:36;3.67;;;1.87;;
19883;SDS011;10104;50.732;10.174;2023-07-13T02:21:58;4.63;;;1.83;;
19883;SDS011;10104;50.732;10.174;2023-07-13T02:24:19;3.47;;;1.90;;
19883;SDS011;10104;50.732;10.174;2023-07-13T02:26:42;2.60;;;1.53;;
19883;SDS011;10104;50.732;10.174;2023-07-13T02:29:03;2.90;;;1.60;;
19883;SDS011;10104;50.732;10.174;2023-07-13T02:31:25;3.90;;;1.60;;
19883;SDS011;10104;50.732;10.174;2023-07-13T02:33:47;5.67;;;1.90;;
19883;SDS011;10104;50.732;10.174;2023-07-13T02:36:08;3.40;;;1.70;;
19883;SDS011;10104;50.732;10.174;2023-07-13T02:38:31;4.30;;;1.80;;
19883;SDS011;10104;50.732;10.174;2023-07-13T02:40:54;1.80;;;1.60;;
19883;SDS011;10104;50.732;10.174;2023-07-13T02:43:16;2.73;;;1.60;;
19883;SDS011;10104;50.732;10.174;2023-07-13T02:45:37;3.00;;;1.70;;
19883;SDS011;10104;50.732;10.174;2023-07-13T02:48:00;4.83;;;1.80;;
19883;SDS011;10104;50.732;10.174;2023-07-13T02:50:22;7.27;;;1.70;;
19883;SDS011;10104;50.732;10.174;2023-07-13T02:52:43;3.30;;;1.73;;
19883;SDS011;10104;50.732;10.174;2023-07-13T02:55:05;2.57;;;1.80;;
19883;SDS011;10104;50.732;10.174;2023-07-13T02:57:27;6.80;;;1.80;;
19883;SDS011;10104;50.732;10.174;2023-07-13T02:59:49;4.43;;;1.70;;
19883;SDS011;10104;50.732;10.174;2023-07-13T03:02:11;3.17;;;2.00;;
19883;SDS011;10104;50.732;10.174;2023-07-13T03:04:32;3.47;;;1.80;;
19883;SDS011;10104;50.732;10.174;2023-07-13T03:06:54;3.17;;;1.90;;
19883;SDS011;10104;50.732;10.174;2023-07-13T03:09:18;1.97;;;1.50;;
19883;SDS011;10104;50.732;10.174;2023-07-13T03:11:40;7.43;;;1.80;;
19883;SDS011;10104;50.732;10.174;2023-07-13T03:14:01;5.83;;;2.10;;
19883;SDS011;10104;50.732;10.174;2023-07-13T03:16:23;2.40;;;1.70;;
19883;SDS011;10104;50.732;10.174;2023-07-13T03:18:45;3.10;;;1.53;;
19883;SDS011;10104;50.732;10.174;2023-07-13T03:21:07;5.83;;;1.77;;
19883;SDS011;10104;50.732;10.174;2023-07-13T03:23:29;3.07;;;1.77;;
19883;SDS011;10104;50.732;10.174;2023-07-13T03:26:00;2.60;;;1.60;;
19883;SDS011;10104;50.732;10.174;2023-07-13T03:28:23;3.20;;;1.90;;
19883;SDS011;10104;50.732;10.174;2023-07-13T03:30:45;3.43;;;1.80;;
19883;SDS011;10104;50.732;10.174;2023-07-13T03:33:06;2.50;;;1.60;;
19883;SDS011;10104;50.732;10.174;2023-07-13T03:35:29;2.50;;;1.77;;
19883;SDS011;10104;50.732;10.174;2023-07-13T03:37:50;3.33;;;1.90;;
19883;SDS011;10104;50.732;10.174;2023-07-13T03:40:12;4.60;;;1.97;;
19883;SDS011;10104;50.732;10.174;2023-07-13T03:42:34;5.30;;;1.80;;
19883;SDS011;10104;50.732;10.174;2023-07-13T03:44:56;3.57;;;1.60;;
19883;SDS011;10104;50.732;10.174;2023-07-13T03:47:18;3.67;;;1.80;;
19883;SDS011;10104;50.732;10.174;2023-07-13T03:49:39;2.87;;;1.67;;
19883;SDS011;10104;50.732;10.174;2023-07-13T03:52:01;2.60;;;1.53;;
19883;SDS011;10104;50.732;10.174;2023-07-13T03:54:22;3.47;;;1.83;;
19883;SDS011;10104;50.732;10.174;2023-07-13T03:56:44;4.40;;;1.80;;
19883;SDS011;10104;50.732;10.174;2023-07-13T03:59:05;5.80;;;1.67;;
19883;SDS011;10104;50.732;10.174;2023-07-13T04:01:27;2.97;;;1.93;;
19883;SDS011;10104;50.732;10.174;2023-07-13T04:03:49;3.97;;;1.70;;
19883;SDS011;10104;50.732;10.174;2023-07-13T04:06:19;2.93;;;1.50;;
19883;SDS011;10104;50.732;10.174;2023-07-13T04:08:42;4.33;;;1.73;;
19883;SDS011;10104;50.732;10.174;2023-07-13T04:11:04;5.63;;;1.90;;
19883;SDS011;10104;50.732;10.174;2023-07-13T04:13:25;3.50;;;1.60;;
19883;SDS011;10104;50.732;10.174;2023-07-13T04:15:48;2.30;;;1.80;;
19883;SDS011;10104;50.732;10.174;2023-07-13T04:18:10;2.87;;;1.80;;
19883;SDS011;10104;50.732;10.174;2023-07-13T04:20:31;3.50;;;2.07;;
19883;SDS011;10104;50.732;10.174;2023-07-13T04:22:53;3.57;;;1.83;;
19883;SDS011;10104;50.732;10.174;2023-07-13T04:25:15;3.63;;;2.00;;
19883;SDS011;10104;50.732;10.174;2023-07-13T04:27:37;2.20;;;1.70;;
19883;SDS011;10104;50.732;10.174;2023-07-13T04:29:59;1.87;;;1.40;;
19883;SDS011;10104;50.732;10.174;2023-07-13T04:32:20;3.63;;;1.60;;
19883;SDS011;10104;50.732;10.174;2023-07-13T04:34:42;4.87;;;1.60;;
19883;SDS011;10104;50.732;10.174;2023-07-13T04:37:04;3.27;;;1.80;;
19883;SDS011;10104;50.732;10.174;2023-07-13T04:39:25;3.23;;;1.90;;
19883;SDS011;10104;50.732;10.174;2023-07-13T04:41:47;3.80;;;1.77;;
19883;SDS011;10104;50.732;10.174;2023-07-13T04:44:08;3.60;;;1.80;;
19883;SDS011;10104;50.732;10.174;2023-07-13T04:46:30;5.63;;;1.77;;
19883;SDS011;10104;50.732;10.174;2023-07-13T04:48:52;2.30;;;1.80;;
19883;SDS011;10104;50.732;10.174;2023-07-13T04:51:15;4.03;;;1.87;;
19883;SDS011;10104;50.732;10.174;2023-07-13T04:53:36;1.93;;;1.73;;
19883;SDS011;10104;50.732;10.174;2023-07-13T04:55:58;5.97;;;1.80;;
19883;SDS011;10104;50.732;10.174;2023-07-13T04:58:19;3.60;;;1.93;;
19883;SDS011;10104;50.732;10.174;2023-07-13T05:00:42;3.20;;;1.97;;
19883;SDS011;10104;50.732;10.174;2023-07-13T05:03:04;5.23;;;1.60;;
19883;SDS011;10104;50.732;10.174;2023-07-13T05:05:27;3.63;;;1.70;;
19883;SDS011;10104;50.732;10.174;2023-07-13T05:07:48;5.10;;;2.00;;
19883;SDS011;10104;50.732;10.174;2023-07-13T05:10:10;3.77;;;1.80;;
19883;SDS011;10104;50.732;10.174;2023-07-13T05:12:32;3.95;;;1.60;;
19883;SDS011;10104;50.732;10.174;2023-07-13T05:14:53;8.82;;;2.08;;
19883;SDS011;10104;50.732;10.174;2023-07-13T05:17:15;4.47;;;2.15;;
19883;SDS011;10104;50.732;10.174;2023-07-13T05:19:36;5.63;;;2.10;;
19883;SDS011;10104;50.732;10.174;2023-07-13T05:21:58;4.15;;;1.83;;
19883;SDS011;10104;50.732;10.174;2023-07-13T05:24:19;4.10;;;2.15;;
19883;SDS011;10104;50.732;10.174;2023-07-13T05:26:46;3.95;;;1.98;;
19883;SDS011;10104;50.732;10.174;2023-07-13T05:29:07;3.15;;;1.83;;
19883;SDS011;10104;50.732;10.174;2023-07-13T05:31:29;6.43;;;1.80;;
19883;SDS011;10104;50.732;10.174;2023-07-13T05:33:50;3.55;;;1.90;;
19883;SDS011;10104;50.732;10.174;2023-07-13T05:36:12;3.25;;;1.90;;
19883;SDS011;10104;50.732;10.174;2023-07-13T05:38:33;2.38;;;1.55;;
19883;SDS011;10104;50.732;10.174;2023-07-13T05:40:55;4.55;;;1.88;;
19883;SDS011;10104;50.732;10.174;2023-07-13T05:43:17;3.55;;;1.70;;
19883;SDS011;10104;50.732;10.174;2023-07-13T05:45:39;3.35;;;1.80;;
19883;SDS011;10104;50.732;10.174;2023-07-13T05:48:01;6.43;;;2.05;;
19883;SDS011;10104;50.732;10.174;2023-07-13T05:50:23;7.57;;;2.13;;
19883;SDS011;10104;50.732;10.174;2023-07-13T05:52:44;6.28;;;2.03;;
19883;SDS011;10104;50.732;10.174;2023-07-13T05:55:06;5.10;;;2.05;;
19883;SDS011;10104;50.732;10.174;2023-07-13T05:57:27;5.53;;;2.03;;
19883;SDS011;10104;50.732;10.174;2023-07-13T05:59:49;6.55;;;1.88;;
19883;SDS011;10104;50.732;10.174;2023-07-13T06:02:10;4.35;;;1.80;;
19883;SDS011;10104;50.732;10.174;2023-07-13T06:04:32;3.58;;;1.50;;
19883;SDS011;10104;50.732;10.174;2023-07-13T06:06:53;5.50;;;1.60;;
19883;SDS011;10104;50.732;10.174;2023-07-13T06:09:15;5.43;;;2.08;;
19883;SDS011;10104;50.732;10.174;2023-07-13T06:11:36;5.57;;;1.70;;
19883;SDS011;10104;50.732;10.174;2023-07-13T06:13:58;4.95;;;1.70;;
19883;SDS011;10104;50.732;10.174;2023-07-13T06:16:20;5.30;;;1.80;;
19883;SDS011;10104;50.732;10.174;2023-07-13T06:18:41;5.93;;;1.60;;
19883;SDS011;10104;50.732;10.174;2023-07-13T06:21:07;3.83;;;1.98;;
19883;SDS011;10104;50.732;10.174;2023-07-13T06:23:30;3.72;;;2.00;;
19883;SDS011;10104;50.732;10.174;2023-07-13T06:25:52;4.82;;;1.60;;
19883;SDS011;10104;50.732;10.174;2023-07-13T06:28:13;5.53;;;1.83;;
19883;SDS011;10104;50.732;10.174;2023-07-13T06:30:37;5.10;;;1.60;;
19883;SDS011;10104;50.732;10.174;2023-07-13T06:32:59;3.90;;;1.73;;
19883;SDS011;10104;50.732;10.174;2023-07-13T06:35:21;3.17;;;1.33;;
19883;SDS011;10104;50.732;10.174;2023-07-13T06:37:43;4.32;;;1.30;;
19883;SDS011;10104;50.732;10.174;2023-07-13T06:40:04;7.95;;;1.40;;
19883;SDS011;10104;50.732;10.174;2023-07-13T06:42:27;5.32;;;1.60;;
19883;SDS011;10104;50.732;10.174;2023-07-13T06:44:48;6.65;;;1.70;;
19883;SDS011;10104;50.732;10.174;2023-07-13T06:47:10;4.22;;;1.63;;
19883;SDS011;10104;50.732;10.174;2023-07-13T06:49:31;4.28;;;1.27;;
19883;SDS011;10104;50.732;10.174;2023-07-13T06:51:53;5.45;;;1.70;;
19883;SDS011;10104;50.732;10.174;2023-07-13T06:54:14;3.40;;;1.50;;
19883;SDS011;10104;50.732;10.174;2023-07-13T06:56:36;4.00;;;1.60;;
19883;SDS011;10104;50.732;10.174;2023-07-13T06:58:58;3.63;;;1.15;;
19883;SDS011;10104;50.732;10.174;2023-07-13T07:01:19;3.92;;;1.40;;
19883;SDS011;10104;50.732;10.174;2023-07-13T07:03:41;4.47;;;1.70;;
19883;SDS011;10104;50.732;10.174;2023-07-13T07:06:06;2.78;;;1.23;;
19883;SDS011;10104;50.732;10.174;2023-07-13T07:08:31;5.20;;;1.40;;
19883;SDS011;10104;50.732;10.174;2023-07-13T07:10:53;5.22;;;1.58;;
19883;SDS011;10104;50.732;10.174;2023-07-13T07:13:15;3.53;;;1.20;;
19883;SDS011;10104;50.732;10.174;2023-07-13T07:15:37;5.40;;;1.30;;
19883;SDS011;10104;50.732;10.174;2023-07-13T07:17:58;2.72;;;1.30;;
19883;SDS011;10104;50.732;10.174;2023-07-13T07:20:20;2.53;;;1.40;;
19883;SDS011;10104;50.732;10.174;2023-07-13T07:22:41;7.07;;;1.70;;
19883;SDS011;10104;50.732;10.174;2023-07-13T07:25:03;6.32;;;1.30;;
19883;SDS011;10104;50.732;10.174;2023-07-13T07:27:25;3.35;;;1.52;;
19883;SDS011;10104;50.732;10.174;2023-07-13T07:29:50;4.38;;;1.52;;
19883;SDS011;10104;50.732;10.174;2023-07-13T07:32:32;3.95;;;1.60;;
19883;SDS011;10104;50.732;10.174;2023-07-13T07:34:57;4.72;;;1.25;;
19883;SDS011;10104;50.732;10.174;2023-07-13T07:37:19;3.72;;;1.27;;
19883;SDS011;10104;50.732;10.174;2023-07-13T07:39:43;3.58;;;1.30;;
19883;SDS011;10104;50.732;10.174;2023-07-13T07:42:26;2.38;;;1.02;;
19883;SDS011;10104;50.732;10.174;2023-07-13T07:44:47;4.53;;;1.48;;
19883;SDS011;10104;50.732;10.174;2023-07-13T07:47:09;3.00;;;1.35;;
19883;SDS011;10104;50.732;10.174;2023-07-13T07:49:30;5.10;;;1.40;;
19883;SDS011;10104;50.732;10.174;2023-07-13T07:51:52;2.92;;;0.88;;
19883;SDS011;10104;50.732;10.174;2023-07-13T07:54:13;3.83;;;1.30;;
19883;SDS011;10104;50.732;10.174;2023-07-13T07:56:49;5.88;;;1.50;;
19883;SDS011;10104;50.732;10.174;2023-07-13T07:59:14;4.38;;;1.20;;
19883;SDS011;10104;50.732;10.174;2023-07-13T08:01:38;3.50;;;1.35;;
19883;SDS011;10104;50.732;10.174;2023-07-13T08:04:03;5.38;;;1.27;;
19883;SDS011;10104;50.732;10.174;2023-07-13T08:06:27;4.88;;;1.65;;
19883;SDS011;10104;50.732;10.174;2023-07-13T08:09:05;4.43;;;1.42;;
19883;SDS011;10104;50.732;10.174;2023-07-13T08:11:27;2.42;;;1.20;;
19883;SDS011;10104;50.732;10.174;2023-07-13T08:13:51;3.03;;;1.23;;
19883;SDS011;10104;50.732;10.174;2023-07-13T08:16:15;5.45;;;1.20;;
19883;SDS011;10104;50.732;10.174;2023-07-13T08:18:37;3.80;;;1.33;;
19883;SDS011;10104;50.732;10.174;2023-07-13T08:21:02;1.38;;;1.10;;
19883;SDS011;10104;50.732;10.174;2023-07-13T08:23:25;4.07;;;1.17;;
19883;SDS011;10104;50.732;10.174;2023-07-13T08:25:50;5.28;;;1.23;;
19883;SDS011;10104;50.732;10.174;2023-07-13T08:28:15;3.15;;;1.10;;
19883;SDS011;10104;50.732;10.174;2023-07-13T08:30:37;1.63;;;1.00;;
19883;SDS011;10104;50.732;10.174;2023-07-13T08:32:58;3.30;;;1.08;;
19883;SDS011;10104;50.732;10.174;2023-07-13T08:35:20;2.22;;;1.20;;
19883;SDS011;10104;50.732;10.174;2023-07-13T08:37:42;3.47;;;1.00;;
19883;SDS011;10104;50.732;10.174;2023-07-13T08:40:04;1.65;;;1.00;;
19883;SDS011;10104;50.732;10.174;2023-07-13T08:45:07;3.13;;;1.23;;
19883;SDS011;10104;50.732;10.174;2023-07-13T08:47:41;3.28;;;1.00;;
19883;SDS011;10104;50.732;10.174;2023-07-13T08:50:12;1.17;;;0.80;;
19883;SDS011;10104;50.732;10.174;2023-07-13T08:52:39;4.00;;;1.00;;
19883;SDS011;10104;50.732;10.174;2023-07-13T08:55:10;2.55;;;1.00;;
19883;SDS011;10104;50.732;10.174;2023-07-13T08:57:38;2.58;;;1.00;;
19883;SDS011;10104;50.732;10.174;2023-07-13T09:00:02;2.40;;;1.05;;
19883;SDS011;10104;50.732;10.174;2023-07-13T09:02:27;4.05;;;1.10;;
19883;SDS011;10104;50.732;10.174;2023-07-13T09:05:02;2.25;;;1.00;;
19883;SDS011;10104;50.732;10.174;2023-07-13T09:07:33;7.68;;;1.30;;
19883;SDS011;10104;50.732;10.174;2023-07-13T09:15:31;2.10;;;0.90;;
19883;SDS011;10104;50.732;10.174;2023-07-13T09:17:57;2.42;;;0.80;;
19883;SDS011;10104;50.732;10.174;2023-07-13T09:22:53;2.35;;;0.93;;
19883;SDS011;10104;50.732;10.174;2023-07-13T09:25:23;2.03;;;0.80;;
19883;SDS011;10104;50.732;10.174;2023-07-13T09:27:46;1.42;;;0.90;;
19883;SDS011;10104;50.732;10.174;2023-07-13T09:30:16;1.23;;;0.80;;
19883;SDS011;10104;50.732;10.174;2023-07-13T09:32:48;2.47;;;1.00;;
19883;SDS011;10104;50.732;10.174;2023-07-13T09:35:15;4.00;;;1.00;;
19883;SDS011;10104;50.732;10.174;2023-07-13T09:37:40;2.90;;;1.00;;
19883;SDS011;10104;50.732;10.174;2023-07-13T09:40:07;1.92;;;0.70;;
19883;SDS011;10104;50.732;10.174;2023-07-13T09:42:36;2.13;;;0.90;;
19883;SDS011;10104;50.732;10.174;2023-07-13T09:45:00;4.65;;;1.05;;
19883;SDS011;10104;50.732;10.174;2023-07-13T09:47:31;1.75;;;1.00;;
19883;SDS011;10104;50.732;10.174;2023-07-13T09:50:00;1.38;;;0.82;;
19883;SDS011;10104;50.732;10.174;2023-07-13T09:52:24;1.65;;;0.95;;
19883;SDS011;10104;50.732;10.174;2023-07-13T09:54:49;2.78;;;1.00;;
19883;SDS011;10104;50.732;10.174;2023-07-13T09:57:16;5.93;;;1.05;;
19883;SDS011;10104;50.732;10.174;2023-07-13T09:59:48;2.03;;;1.00;;
19883;SDS011;10104;50.732;10.174;2023-07-13T10:02:32;2.05;;;0.95;;
19883;SDS011;10104;50.732;10.174;2023-07-13T10:04:59;2.85;;;1.00;;
19883;SDS011;10104;50.732;10.174;2023-07-13T10:07:27;1.33;;;0.70;;
19883;SDS011;10104;50.732;10.174;2023-07-13T10:09:53;1.38;;;0.77;;
19883;SDS011;10104;50.732;10.174;2023-07-13T10:12:15;1.23;;;0.90;;
19883;SDS011;10104;50.732;10.174;2023-07-13T10:14:38;1.90;;;0.93;;
19883;SDS011;10104;50.732;10.174;2023-07-13T10:17:03;2.03;;;1.08;;
19883;SDS011;10104;50.732;10.174;2023-07-13T10:19:26;4.53;;;1.08;;
19883;SDS011;10104;50.732;10.174;2023-07-13T10:21:53;6.03;;;1.00;;
19883;SDS011;10104;50.732;10.174;2023-07-13T10:24:19;3.65;;;1.02;;
19883;SDS011;10104;50.732;10.174;2023-07-13T10:26:46;2.03;;;1.00;;
19883;SDS011;10104;50.732;10.174;2023-07-13T10:29:13;1.70;;;1.00;;
19883;SDS011;10104;50.732;10.174;2023-07-13T10:31:38;0.90;;;0.65;;
19883;SDS011;10104;50.732;10.174;2023-07-13T10:34:00;1.27;;;1.05;;
19883;SDS011;10104;50.732;10.174;2023-07-13T10:38:55;2.08;;;0.90;;
19883;SDS011;10104;50.732;10.174;2023-07-13T10:41:21;4.00;;;0.80;;
19883;SDS011;10104;50.732;10.174;2023-07-13T10:43:46;1.80;;;0.90;;
19883;SDS011;10104;50.732;10.174;2023-07-13T10:46:12;1.08;;;0.68;;
19883;SDS011;10104;50.732;10.174;2023-07-13T10:48:37;1.05;;;0.77;;
19883;SDS011;10104;50.732;10.174;2023-07-13T10:51:01;2.63;;;1.00;;
19883;SDS011;10104;50.732;10.174;2023-07-13T10:53:31;1.55;;;0.68;;
19883;SDS011;10104;50.732;10.174;2023-07-13T10:55:56;1.25;;;0.98;;
19883;SDS011;10104;50.732;10.174;2023-07-13T10:58:43;4.00;;;0.90;;
19883;SDS011;10104;50.732;10.174;2023-07-13T11:01:08;1.65;;;0.80;;
19883;SDS011;10104;50.732;10.174;2023-07-13T11:03:31;1.70;;;0.90;;
19883;SDS011;10104;50.732;10.174;2023-07-13T11:06:13;2.10;;;1.02;;
19883;SDS011;10104;50.732;10.174;2023-07-13T11:08:50;1.77;;;0.80;;
19883;SDS011;10104;50.732;10.174;2023-07-13T11:18:37;1.08;;;0.77;;
19883;SDS011;10104;50.732;10.174;2023-07-13T11:21:12;1.92;;;0.98;;
19883;SDS011;10104;50.732;10.174;2023-07-13T11:23:54;1.50;;;0.93;;
19883;SDS011;10104;50.732;10.174;2023-07-13T11:26:37;3.60;;;0.82;;
19883;SDS011;10104;50.732;10.174;2023-07-13T11:29:14;2.42;;;1.00;;
19883;SDS011;10104;50.732;10.174;2023-07-13T11:31:53;4.15;;;0.90;;
19883;SDS011;10104;50.732;10.174;2023-07-13T11:34:19;2.38;;;0.90;;
19883;SDS011;10104;50.732;10.174;2023-07-13T11:36:46;1.27;;;0.70;;
19883;SDS011;10104;50.732;10.174;2023-07-13T11:39:15;2.88;;;0.82;;
19883;SDS011;10104;50.732;10.174;2023-07-13T11:41:44;1.70;;;0.80;;
19883;SDS011;10104;50.732;10.174;2023-07-13T11:44:14;1.48;;;0.80;;
19883;SDS011;10104;50.732;10.174;2023-07-13T11:46:38;1.35;;;0.70;;
19883;SDS011;10104;50.732;10.174;2023-07-13T11:49:04;1.70;;;1.00;;
19883;SDS011;10104;50.732;10.174;2023-07-13T11:51:28;3.03;;;1.05;;
19883;SDS011;10104;50.732;10.174;2023-07-13T11:53:53;1.05;;;0.95;;
19883;SDS011;10104;50.732;10.174;2023-07-13T11:56:18;0.70;;;0.70;;
19883;SDS011;10104;50.732;10.174;2023-07-13T11:58:41;2.17;;;0.90;;
19883;SDS011;10104;50.732;10.174;2023-07-13T12:01:03;1.17;;;0.70;;
19883;SDS011;10104;50.732;10.174;2023-07-13T12:03:28;2.60;;;1.00;;
19883;SDS011;10104;50.732;10.174;2023-07-13T12:06:00;3.90;;;0.90;;
19883;SDS011;10104;50.732;10.174;2023-07-13T12:08:24;1.30;;;0.70;;
19883;SDS011;10104;50.732;10.174;2023-07-13T12:10:45;1.15;;;0.80;;
19883;SDS011;10104;50.732;10.174;2023-07-13T12:13:09;2.80;;;0.70;;
19883;SDS011;10104;50.732;10.174;2023-07-13T12:18:00;0.75;;;0.75;;
19883;SDS011;10104;50.732;10.174;2023-07-13T12:20:26;2.60;;;0.93;;
19883;SDS011;10104;50.732;10.174;2023-07-13T12:22:50;1.83;;;1.00;;
19883;SDS011;10104;50.732;10.174;2023-07-13T12:25:12;1.48;;;0.90;;
19883;SDS011;10104;50.732;10.174;2023-07-13T12:27:36;2.47;;;1.15;;
19883;SDS011;10104;50.732;10.174;2023-07-13T12:29:59;1.52;;;1.05;;
19883;SDS011;10104;50.732;10.174;2023-07-13T12:32:24;2.08;;;0.98;;
19883;SDS011;10104;50.732;10.174;2023-07-13T12:34:53;1.52;;;1.00;;
19883;SDS011;10104;50.732;10.174;2023-07-13T12:37:34;2.60;;;0.93;;
19883;SDS011;10104;50.732;10.174;2023-07-13T12:39:56;1.13;;;1.00;;
19883;SDS011;10104;50.732;10.174;2023-07-13T12:44:47;2.00;;;1.20;;
19883;SDS011;10104;50.732;10.174;2023-07-13T12:47:11;1.70;;;1.00;;
19883;SDS011;10104;50.732;10.174;2023-07-13T12:49:34;2.65;;;0.80;;
19883;SDS011;10104;50.732;10.174;2023-07-13T12:52:04;1.20;;;0.80;;
19883;SDS011;10104;50.732;10.174;2023-07-13T12:54:34;3.30;;;0.80;;
19883;SDS011;10104;50.732;10.174;2023-07-13T12:56:57;1.70;;;0.88;;
19883;SDS011;10104;50.732;10.174;2023-07-13T12:59:21;2.13;;;0.80;;
19883;SDS011;10104;50.732;10.174;2023-07-13T13:01:43;1.92;;;0.90;;
19883;SDS011;10104;50.732;10.174;2023-07-13T13:04:08;2.03;;;1.02;;
19883;SDS011;10104;50.732;10.174;2023-07-13T13:06:32;3.17;;;0.95;;
19883;SDS011;10104;50.732;10.174;2023-07-13T13:08:55;1.50;;;0.85;;
19883;SDS011;10104;50.732;10.174;2023-07-13T13:11:22;1.33;;;0.80;;
19883;SDS011;10104;50.732;10.174;2023-07-13T13:13:45;3.85;;;0.93;;
19883;SDS011;10104;50.732;10.174;2023-07-13T13:16:23;2.25;;;0.80;;
19883;SDS011;10104;50.732;10.174;2023-07-13T13:18:49;2.45;;;0.80;;
19883;SDS011;10104;50.732;10.174;2023-07-13T13:21:12;2.60;;;0.77;;
19883;SDS011;10104;50.732;10.174;2023-07-13T13:23:33;2.50;;;1.00;;
19883;SDS011;10104;50.732;10.174;2023-07-13T13:25:55;1.08;;;0.75;;
19883;SDS011;10104;50.732;10.174;2023-07-13T13:28:18;3.03;;;1.20;;
19883;SDS011;10104;50.732;10.174;2023-07-13T13:30:41;2.92;;;1.00;;
19883;SDS011;10104;50.732;10.174;2023-07-13T13:33:05;1.70;;;1.20;;
19883;SDS011;10104;50.732;10.174;2023-07-13T13:35:30;2.00;;;1.02;;
19883;SDS011;10104;50.732;10.174;2023-07-13T13:37:52;6.28;;;0.90;;
19883;SDS011;10104;50.732;10.174;2023-07-13T13:40:15;2.83;;;1.00;;
19883;SDS011;10104;50.732;10.174;2023-07-13T13:42:41;1.73;;;0.90;;
19883;SDS011;10104;50.732;10.174;2023-07-13T13:45:03;3.30;;;1.15;;
19883;SDS011;10104;50.732;10.174;2023-07-13T13:47:28;3.58;;;1.10;;
19883;SDS011;10104;50.732;10.174;2023-07-13T13:49:52;2.08;;;1.10;;
19883;SDS011;10104;50.732;10.174;2023-07-13T13:52:14;2.13;;;1.10;;
19883;SDS011;10104;50.732;10.174;2023-07-13T13:54:36;2.13;;;1.25;;
19883;SDS011;10104;50.732;10.174;2023-07-13T13:57:01;2.53;;;1.35;;
19883;SDS011;10104;50.732;10.174;2023-07-13T13:59:23;2.40;;;1.00;;
19883;SDS011;10104;50.732;10.174;2023-07-13T14:01:45;5.50;;;1.38;;
19883;SDS011;10104;50.732;10.174;2023-07-13T14:04:16;1.70;;;1.10;;
19883;SDS011;10104;50.732;10.174;2023-07-13T14:06:40;1.40;;;0.93;;
19883;SDS011;10104;50.732;10.174;2023-07-13T14:09:02;1.98;;;1.10;;
19883;SDS011;10104;50.732;10.174;2023-07-13T14:11:26;2.47;;;1.27;;
19883;SDS011;10104;50.732;10.174;2023-07-13T14:13:52;1.48;;;1.13;;
19883;SDS011;10104;50.732;10.174;2023-07-13T14:16:19;1.42;;;0.85;;
19883;SDS011;10104;50.732;10.174;2023-07-13T14:18:42;1.98;;;1.15;;
19883;SDS011;10104;50.732;10.174;2023-07-13T14:21:08;3.20;;;1.13;;
19883;SDS011;10104;50.732;10.174;2023-07-13T14:23:33;2.47;;;1.10;;
19883;SDS011;10104;50.732;10.174;2023-07-13T14:25:54;1.73;;;0.90;;
19883;SDS011;10104;50.732;10.174;2023-07-13T14:28:26;1.73;;;0.90;;
19883;SDS011;10104;50.732;10.174;2023-07-13T14:30:50;3.08;;;1.45;;
19883;SDS011;10104;50.732;10.174;2023-07-13T14:33:12;3.17;;;1.30;;
19883;SDS011;10104;50.732;10.174;2023-07-13T14:35:34;2.47;;;1.20;;
19883;SDS011;10104;50.732;10.174;2023-07-13T14:37:56;5.05;;;1.35;;
19883;SDS011;10104;50.732;10.174;2023-07-13T14:40:19;2.45;;;1.25;;